KMSL

Northwest Alabama Regional Airport

Muscle Shoals, Alabama, USA
METAR KMSL 221753Z AUTO 15005KT 10SM CLR 18/03 A3026 RMK AO2 SLP244 T01830033 10183 20017 58021
Observed Flight Rules
Oct-22 @ 17:53 UTC (50 minutes ago) Visual Flight Rules
Wind Visibility Clouds
150° at 5 knots 10 miles
  • Clear skies
Temperatures Readings
Current 18°C / 64°F
Dewpoint 3°C / 37°F
Humidity 37%
Altimeter 30.26" Hg
Pressure 1024.4 hPa
Elevation 164
METAR KMSL 221753Z AUTO 15005KT 10SM CLR 18/03 A3026 RMK AO2 SLP244 T01830033 10183 20017 58021
Observed Flight Rules
Oct-22 @ 17:53 UTC
(50 minutes ago)
VFR
Wind Visibility
150° at 5 knots 10 miles
Clouds
  • Clear skies
Temperature Dewpoint
18°C / 64°F 3°C / 37°F
Humidity Altimeter Pressure
37% 30.26" Hg 1024.4 hPa